Terminal Aerodrome Forecast
Issued by NWS

Home | Current Version | Previous Version | Text Only | Print | Product List | Glossary On
Versions: 1 2 3 4 5 6 7 8 9 10 11 12 13 14 15 16 17 18 19 20
000
FTUS46 KSEW 281300 AAC
TAFOLM
TAF AMD
KOLM 281301Z 2813/2912 VRB03KT 3SM BR OVC003
      TEMPO 2813/2816 1/2SM FG VV002
     FM281700 VRB03KT P6SM BKN010
     FM281900 36005KT P6SM SKC
     FM290300 00000KT P6SM SKC=

USA.gov is the U.S. government's official web portal to all federal, state and local government web resources and services.